createdAt,value
2017-05-16T00:00:07.795Z,0
2017-05-16T00:01:08.441Z,0
2017-05-16T00:02:09.080Z,0
2017-05-16T00:03:09.721Z,0
2017-05-16T00:04:10.767Z,0
2017-05-16T00:05:11.403Z,0
2017-05-16T00:06:12.045Z,0
2017-05-16T00:07:12.682Z,0
2017-05-16T00:08:13.326Z,0
2017-05-16T00:09:13.962Z,0
2017-05-16T00:10:14.605Z,0
2017-05-16T00:11:15.246Z,0
2017-05-16T00:12:16.087Z,0
2017-05-16T00:13:16.732Z,0
2017-05-16T00:14:17.372Z,0
2017-05-16T00:15:18.015Z,0
2017-05-16T00:16:18.655Z,0
2017-05-16T00:17:19.298Z,0
2017-05-16T00:18:19.940Z,0
2017-05-16T00:19:20.577Z,0
2017-05-16T00:20:21.519Z,0
2017-05-16T00:21:22.123Z,0
2017-05-16T00:22:22.765Z,0
2017-05-16T00:23:23.406Z,0
2017-05-16T00:24:24.050Z,0
2017-05-16T00:25:24.692Z,0
2017-05-16T00:26:25.334Z,0
2017-05-16T00:27:25.978Z,0
2017-05-16T00:28:26.820Z,0
2017-05-16T00:29:27.463Z,0
2017-05-16T00:30:28.106Z,0
2017-05-16T00:31:28.747Z,0
2017-05-16T00:32:29.391Z,0
2017-05-16T00:33:30.035Z,0
2017-05-16T00:34:30.674Z,0
2017-05-16T00:35:31.315Z,0
2017-05-16T00:36:31.956Z,0
2017-05-16T00:37:32.797Z,0
2017-05-16T00:38:33.440Z,0
2017-05-16T00:39:34.076Z,0
2017-05-16T00:40:34.713Z,0
2017-05-16T00:41:35.351Z,0
2017-05-16T00:42:35.989Z,0
2017-05-16T00:43:36.631Z,0
2017-05-16T00:44:37.274Z,0
2017-05-16T00:45:38.064Z,0
2017-05-16T00:46:38.702Z,0
2017-05-16T00:47:39.336Z,0
2017-05-16T00:48:39.976Z,0
2017-05-16T00:49:40.621Z,0
2017-05-16T00:50:41.269Z,0
2017-05-16T00:51:41.908Z,0
2017-05-16T00:52:42.549Z,0
2017-05-16T00:53:43.385Z,0
2017-05-16T00:54:44.028Z,0
2017-05-16T00:55:44.673Z,0
2017-05-16T00:56:45.315Z,0
2017-05-16T00:57:45.950Z,0
2017-05-16T00:58:46.592Z,0
2017-05-16T00:59:47.232Z,0
2017-05-16T01:00:47.876Z,0
2017-05-16T01:01:48.718Z,0
2017-05-16T01:02:49.362Z,0
2017-05-16T01:03:50.001Z,0
2017-05-16T01:04:50.642Z,0
2017-05-16T01:05:51.286Z,0
2017-05-16T01:06:51.928Z,0
2017-05-16T01:07:52.572Z,0
2017-05-16T01:08:53.212Z,0
2017-05-16T01:09:53.846Z,0
2017-05-16T01:10:54.687Z,0
2017-05-16T01:11:55.327Z,0
2017-05-16T01:12:55.966Z,0
2017-05-16T01:13:56.607Z,0
2017-05-16T01:14:57.247Z,0
2017-05-16T01:15:57.887Z,0
2017-05-16T01:16:58.533Z,0
2017-05-16T01:17:59.173Z,0
2017-05-16T01:19:00.013Z,0
2017-05-16T01:20:00.651Z,0
2017-05-16T01:21:01.294Z,0
2017-05-16T01:22:01.936Z,0
2017-05-16T01:23:02.572Z,0
2017-05-16T01:24:03.214Z,0
2017-05-16T01:25:03.854Z,0
2017-05-16T01:26:04.496Z,0
2017-05-16T01:27:05.289Z,0
2017-05-16T01:28:05.932Z,0
2017-05-16T01:29:06.573Z,0
2017-05-16T01:30:07.214Z,0
2017-05-16T01:31:07.857Z,0
2017-05-16T01:32:08.497Z,0
2017-05-16T01:33:09.136Z,0
2017-05-16T01:34:09.782Z,0
2017-05-16T01:35:10.621Z,0
2017-05-16T01:36:11.263Z,0
2017-05-16T01:37:11.906Z,0
2017-05-16T01:38:12.546Z,0
2017-05-16T01:39:13.184Z,0
2017-05-16T01:40:13.825Z,0
2017-05-16T01:41:14.469Z,0
2017-05-16T01:42:15.110Z,0
2017-05-16T01:43:15.955Z,0
2017-05-16T01:44:16.598Z,0
2017-05-16T01:45:17.238Z,0
2017-05-16T01:46:17.879Z,0
2017-05-16T01:47:18.568Z,0
2017-05-16T01:48:19.175Z,0
2017-05-16T01:49:19.819Z,0
2017-05-16T01:50:20.461Z,0
2017-05-16T01:51:21.102Z,0
2017-05-16T01:52:21.942Z,0
2017-05-16T01:53:22.584Z,0
2017-05-16T01:54:23.229Z,0
2017-05-16T01:55:23.870Z,0
2017-05-16T01:56:26.957Z,0
2017-05-16T01:57:27.597Z,0
2017-05-16T01:58:28.235Z,0
2017-05-16T01:59:28.877Z,0
2017-05-16T02:00:29.662Z,0
2017-05-16T02:01:30.305Z,0
2017-05-16T02:02:30.945Z,0
2017-05-16T02:03:31.587Z,0
2017-05-16T02:04:32.227Z,0
2017-05-16T02:05:32.864Z,0
2017-05-16T02:06:33.509Z,0
2017-05-16T02:07:34.152Z,0
2017-05-16T02:08:34.994Z,0
2017-05-16T02:09:35.634Z,0
2017-05-16T02:10:36.277Z,0
2017-05-16T02:11:36.914Z,0
2017-05-16T02:12:37.555Z,0
2017-05-16T02:13:38.195Z,0
2017-05-16T02:14:38.834Z,0
2017-05-16T02:15:39.475Z,0
2017-05-16T02:16:40.320Z,0
2017-05-16T02:17:41.280Z,0
2017-05-16T02:18:41.924Z,0
2017-05-16T02:19:42.563Z,0
2017-05-16T02:20:43.200Z,0
2017-05-16T02:21:43.841Z,0
2017-05-16T02:22:44.484Z,0
2017-05-16T02:23:45.126Z,0
2017-05-16T02:24:45.962Z,0
2017-05-16T02:25:46.604Z,0
2017-05-16T02:26:47.244Z,0
2017-05-16T02:27:47.882Z,0
2017-05-16T02:28:48.522Z,0
2017-05-16T02:29:49.164Z,0
2017-05-16T02:30:49.805Z,0
2017-05-16T02:31:50.446Z,0
2017-05-16T02:32:51.089Z,0
2017-05-16T02:33:51.880Z,0
2017-05-16T02:34:52.518Z,0
2017-05-16T02:35:53.158Z,0
2017-05-16T02:36:53.795Z,0
2017-05-16T02:37:54.436Z,0
2017-05-16T02:38:55.076Z,0
2017-05-16T02:39:55.717Z,0
2017-05-16T02:40:56.355Z,0
2017-05-16T02:41:57.198Z,0
2017-05-16T02:42:57.842Z,0
2017-05-16T02:43:58.481Z,0
2017-05-16T02:44:59.123Z,0
2017-05-16T02:45:59.765Z,0
2017-05-16T02:47:00.403Z,0
2017-05-16T02:48:01.044Z,0
2017-05-16T02:49:01.678Z,0
2017-05-16T02:50:02.471Z,0
2017-05-16T02:51:03.432Z,0
2017-05-16T02:52:04.072Z,0
2017-05-16T02:53:04.770Z,0
2017-05-16T02:54:05.381Z,0
2017-05-16T02:55:06.018Z,0
2017-05-16T02:56:06.662Z,0
2017-05-16T02:57:07.303Z,0
2017-05-16T02:58:08.143Z,0
2017-05-16T02:59:08.785Z,0
2017-05-16T03:00:09.426Z,0
2017-05-16T03:01:10.065Z,0
2017-05-16T03:02:10.704Z,0
2017-05-16T03:03:11.345Z,0
2017-05-16T03:04:11.988Z,0
2017-05-16T03:05:12.628Z,0
2017-05-16T03:06:13.269Z,0
2017-05-16T03:07:14.115Z,0
2017-05-16T03:08:14.756Z,0
2017-05-16T03:09:15.395Z,0
2017-05-16T03:10:16.036Z,0
2017-05-16T03:11:16.677Z,0
2017-05-16T03:12:17.325Z,0
2017-05-16T03:13:18.288Z,0
2017-05-16T03:14:18.927Z,0
2017-05-16T03:15:19.718Z,0
2017-05-16T03:16:20.362Z,0
2017-05-16T03:17:21.003Z,0
2017-05-16T03:18:21.645Z,0
2017-05-16T03:19:22.289Z,0
2017-05-16T03:20:22.925Z,0
2017-05-16T03:21:23.568Z,0
2017-05-16T03:22:24.212Z,0
2017-05-16T03:23:25.061Z,0
2017-05-16T03:24:25.694Z,0
2017-05-16T03:25:26.337Z,0
2017-05-16T03:26:26.974Z,0
2017-05-16T03:27:27.616Z,0
2017-05-16T03:28:28.250Z,0
2017-05-16T03:29:28.892Z,0
2017-05-16T03:30:29.534Z,0
2017-05-16T03:31:30.377Z,0
2017-05-16T03:32:31.019Z,0
2017-05-16T03:33:31.660Z,0
2017-05-16T03:34:32.298Z,0
2017-05-16T03:35:32.937Z,0
2017-05-16T03:36:33.577Z,0
2017-05-16T03:37:34.218Z,0
2017-05-16T03:38:34.860Z,0
2017-05-16T03:39:35.695Z,0
2017-05-16T03:40:36.339Z,0
2017-05-16T03:41:36.979Z,0
2017-05-16T03:42:37.623Z,0
2017-05-16T03:43:38.258Z,0
2017-05-16T03:44:38.898Z,0
2017-05-16T03:45:39.539Z,0
2017-05-16T03:46:40.179Z,0
2017-05-16T03:47:40.820Z,0
2017-05-16T03:48:41.664Z,0
2017-05-16T03:49:42.307Z,0
2017-05-16T03:50:42.947Z,0
2017-05-16T03:51:43.587Z,0
2017-05-16T03:52:44.229Z,0
2017-05-16T03:53:44.869Z,0
2017-05-16T03:54:45.510Z,0
2017-05-16T03:55:46.155Z,0
2017-05-16T03:56:46.997Z,0
2017-05-16T03:57:47.640Z,0
2017-05-16T03:58:48.286Z,0
2017-05-16T03:59:48.921Z,0
2017-05-16T04:00:49.560Z,0
2017-05-16T04:01:50.203Z,0
2017-05-16T04:02:50.843Z,0
2017-05-16T04:03:51.483Z,0
2017-05-16T04:04:52.275Z,0
2017-05-16T04:05:52.916Z,0
2017-05-16T04:06:53.559Z,0
2017-05-16T04:07:54.199Z,0
2017-05-16T04:08:54.840Z,0
2017-05-16T04:09:55.481Z,0
2017-05-16T04:10:56.124Z,0
2017-05-16T04:11:56.807Z,0
2017-05-16T04:12:57.611Z,0
2017-05-16T04:13:58.262Z,0
2017-05-16T04:14:58.903Z,0
2017-05-16T04:15:59.545Z,0
2017-05-16T04:17:00.186Z,0
2017-05-16T04:18:00.828Z,0
2017-05-16T04:19:01.509Z,0
2017-05-16T04:20:02.117Z,0
2017-05-16T04:21:02.751Z,0
2017-05-16T04:22:03.542Z,0
2017-05-16T04:23:04.183Z,0
2017-05-16T04:24:04.823Z,0
2017-05-16T04:25:05.469Z,0
2017-05-16T04:26:06.107Z,0
2017-05-16T04:27:06.747Z,0
2017-05-16T04:28:07.391Z,0
2017-05-16T04:29:08.033Z,0
2017-05-16T04:30:08.876Z,0
2017-05-16T04:31:09.516Z,0
2017-05-16T04:32:10.156Z,0
2017-05-16T04:33:10.799Z,0
2017-05-16T04:34:11.442Z,0
2017-05-16T04:35:12.077Z,0
2017-05-16T04:36:12.714Z,0
2017-05-16T04:37:13.354Z,0
2017-05-16T04:38:14.292Z,0
2017-05-16T04:39:14.934Z,0
2017-05-16T04:40:15.575Z,0
2017-05-16T04:41:16.216Z,0
2017-05-16T04:42:16.851Z,0
2017-05-16T04:43:17.495Z,0
2017-05-16T04:44:18.136Z,0
2017-05-16T04:45:18.773Z,0
2017-05-16T04:46:19.558Z,0
2017-05-16T04:47:20.201Z,0
2017-05-16T04:48:20.842Z,0
2017-05-16T04:49:21.485Z,0
2017-05-16T04:50:22.127Z,0
2017-05-16T04:51:22.768Z,0
2017-05-16T04:52:23.405Z,0
2017-05-16T04:53:24.050Z,0
2017-05-16T04:54:24.891Z,0
2017-05-16T04:55:25.531Z,0
2017-05-16T04:56:26.173Z,0
2017-05-16T04:57:26.813Z,0
2017-05-16T04:58:27.458Z,0
2017-05-16T04:59:28.101Z,0
2017-05-16T05:00:28.740Z,0
2017-05-16T05:01:29.383Z,0
2017-05-16T05:02:30.024Z,0
2017-05-16T05:03:30.814Z,0
2017-05-16T05:04:31.457Z,0
2017-05-16T05:05:32.091Z,0
2017-05-16T05:06:32.734Z,0
2017-05-16T05:07:33.377Z,0
2017-05-16T05:08:34.018Z,0
2017-05-16T05:09:34.656Z,0
2017-05-16T05:10:35.298Z,0
2017-05-16T05:11:36.255Z,0
2017-05-16T05:12:36.928Z,0
2017-05-16T05:13:37.722Z,0
2017-05-16T05:14:38.356Z,0
2017-05-16T05:15:38.998Z,0
2017-05-16T05:16:39.640Z,0
2017-05-16T05:17:40.281Z,0
2017-05-16T05:18:40.917Z,0
2017-05-16T05:19:41.759Z,0
2017-05-16T05:20:42.401Z,0
2017-05-16T05:21:43.044Z,0
2017-05-16T05:22:43.679Z,0
2017-05-16T05:23:44.319Z,0
2017-05-16T05:24:44.959Z,0
2017-05-16T05:25:45.601Z,0
2017-05-16T05:26:46.240Z,0
2017-05-16T05:27:47.082Z,0
2017-05-16T05:28:47.720Z,0
2017-05-16T05:29:48.359Z,0
2017-05-16T05:30:49.000Z,0
2017-05-16T05:31:49.642Z,0
2017-05-16T05:32:50.284Z,0
2017-05-16T05:33:50.926Z,0
2017-05-16T05:34:51.566Z,0
2017-05-16T05:35:52.207Z,0
2017-05-16T05:36:53.150Z,0
2017-05-16T05:37:53.789Z,0
2017-05-16T05:38:54.431Z,0
2017-05-16T05:39:55.073Z,0
2017-05-16T05:40:55.709Z,0
2017-05-16T05:41:56.350Z,0
2017-05-16T05:42:56.991Z,0
2017-05-16T05:43:57.632Z,0
2017-05-16T05:44:58.419Z,0
2017-05-16T05:45:59.060Z,0
2017-05-16T05:46:59.701Z,0
2017-05-16T05:48:00.343Z,0
2017-05-16T05:49:00.986Z,0
2017-05-16T05:50:01.631Z,0
2017-05-16T05:51:02.271Z,0
2017-05-16T05:52:02.911Z,0
2017-05-16T05:53:03.805Z,0
2017-05-16T05:54:04.446Z,0
2017-05-16T05:55:05.089Z,0
2017-05-16T05:56:05.731Z,0
2017-05-16T05:57:06.373Z,0
2017-05-16T05:58:07.012Z,0
2017-05-16T05:59:07.654Z,0
2017-05-16T06:00:08.298Z,0
2017-05-16T06:01:09.287Z,0
2017-05-16T06:02:09.928Z,0
2017-05-16T06:03:10.569Z,0
2017-05-16T06:04:11.210Z,0
2017-05-16T06:05:11.856Z,0
2017-05-16T06:06:12.494Z,0
2017-05-16T06:07:13.135Z,0
2017-05-16T06:08:13.773Z,0
2017-05-16T06:09:14.614Z,0
2017-05-16T06:10:15.256Z,0
2017-05-16T06:11:15.895Z,0
2017-05-16T06:12:16.537Z,0
2017-05-16T06:13:17.177Z,0
2017-05-16T06:14:17.819Z,0
2017-05-16T06:15:18.462Z,0
2017-05-16T06:16:19.104Z,0
2017-05-16T06:17:19.747Z,0
2017-05-16T06:18:20.587Z,0
2017-05-16T06:19:21.223Z,0
2017-05-16T06:20:21.866Z,0
2017-05-16T06:21:22.504Z,0
2017-05-16T06:22:23.147Z,0
2017-05-16T06:23:23.789Z,0
2017-05-16T06:24:24.428Z,0
2017-05-16T06:25:25.070Z,0
2017-05-16T06:26:25.907Z,0
2017-05-16T06:27:26.551Z,0
2017-05-16T06:28:27.192Z,0
2017-05-16T06:29:27.832Z,0
2017-05-16T06:30:28.470Z,0
2017-05-16T06:31:29.112Z,0
2017-05-16T06:32:29.749Z,0
2017-05-16T06:33:30.390Z,0
2017-05-16T06:34:31.228Z,0
2017-05-16T06:35:31.868Z,0
2017-05-16T06:36:32.509Z,0
2017-05-16T06:37:33.150Z,0
2017-05-16T06:38:33.790Z,0
2017-05-16T06:39:34.435Z,0
2017-05-16T06:40:35.072Z,0
2017-05-16T06:41:35.707Z,0
2017-05-16T06:42:36.549Z,0
2017-05-16T06:43:37.193Z,0
2017-05-16T06:44:37.834Z,0
2017-05-16T06:45:38.475Z,0
2017-05-16T06:46:39.115Z,0
2017-05-16T06:47:39.756Z,0
2017-05-16T06:48:40.397Z,0
2017-05-16T06:49:41.033Z,0
2017-05-16T06:50:41.676Z,4
2017-05-16T06:51:42.516Z,0
2017-05-16T06:52:43.160Z,0
2017-05-16T06:53:43.800Z,0
2017-05-16T06:54:44.442Z,4
2017-05-16T06:55:45.087Z,4
2017-05-16T06:56:45.723Z,4
2017-05-16T06:57:46.357Z,4
2017-05-16T06:58:46.995Z,4
2017-05-16T06:59:47.935Z,4
2017-05-16T07:00:48.578Z,4
2017-05-16T07:01:49.217Z,4
2017-05-16T07:02:49.861Z,4
2017-05-16T07:03:50.501Z,4
2017-05-16T07:04:51.139Z,4
2017-05-16T07:05:52.101Z,4
2017-05-16T07:06:52.692Z,4
2017-05-16T07:07:53.533Z,4
2017-05-16T07:08:54.173Z,4
2017-05-16T07:09:54.814Z,4
2017-05-16T07:10:55.455Z,0
2017-05-16T07:11:56.096Z,0
2017-05-16T07:12:56.741Z,4
2017-05-16T07:13:57.379Z,4
2017-05-16T07:14:58.335Z,4
2017-05-16T07:15:59.176Z,4
2017-05-16T07:16:59.823Z,4
2017-05-16T07:18:00.453Z,4
2017-05-16T07:19:01.092Z,4
2017-05-16T07:20:01.735Z,4
2017-05-16T07:21:02.376Z,4
2017-05-16T07:22:03.073Z,4
2017-05-16T07:23:03.823Z,4
2017-05-16T07:24:04.660Z,4
2017-05-16T07:25:05.301Z,4
2017-05-16T07:26:05.944Z,4
2017-05-16T07:27:06.584Z,4
2017-05-16T07:28:07.227Z,4
2017-05-16T07:29:07.868Z,4
2017-05-16T07:30:08.512Z,4
2017-05-16T07:31:09.146Z,4
2017-05-16T07:32:09.789Z,4
2017-05-16T07:33:10.779Z,4
2017-05-16T07:34:11.420Z,4
2017-05-16T07:35:12.061Z,4
2017-05-16T07:36:12.703Z,0
2017-05-16T07:37:13.347Z,0
2017-05-16T07:38:13.987Z,0
2017-05-16T07:39:14.628Z,0
2017-05-16T07:40:15.269Z,0
2017-05-16T07:41:16.112Z,0
2017-05-16T07:42:16.757Z,0
2017-05-16T07:43:17.393Z,0
2017-05-16T07:44:18.038Z,0
2017-05-16T07:45:18.672Z,8
2017-05-16T07:46:19.310Z,8
2017-05-16T07:47:19.951Z,8
2017-05-16T07:48:20.595Z,8
2017-05-16T07:49:21.387Z,4
2017-05-16T07:50:22.028Z,8
2017-05-16T07:51:22.670Z,8
2017-05-16T07:52:23.315Z,8
2017-05-16T07:53:23.956Z,8
2017-05-16T07:54:24.592Z,8
2017-05-16T07:55:25.234Z,4
2017-05-16T07:56:25.874Z,4
2017-05-16T07:57:26.715Z,4
2017-05-16T07:58:27.357Z,4
2017-05-16T07:59:28.001Z,4
2017-05-16T08:00:28.642Z,4
2017-05-16T08:01:29.281Z,4
2017-05-16T08:02:29.925Z,8
2017-05-16T08:03:30.564Z,8
2017-05-16T08:04:31.204Z,8
2017-05-16T08:05:31.839Z,8
2017-05-16T08:06:32.681Z,8
2017-05-16T08:07:33.318Z,8
2017-05-16T08:08:33.958Z,8
2017-05-16T08:09:34.600Z,8
2017-05-16T08:10:35.242Z,8
2017-05-16T08:11:35.878Z,4
2017-05-16T08:12:36.521Z,8
2017-05-16T08:13:37.157Z,8
2017-05-16T08:14:37.998Z,8
2017-05-16T08:15:38.643Z,8
2017-05-16T08:16:39.288Z,8
2017-05-16T08:17:39.926Z,8
2017-05-16T08:18:40.570Z,8
2017-05-16T08:19:41.208Z,8
2017-05-16T08:20:41.852Z,8
2017-05-16T08:21:42.490Z,8
2017-05-16T08:22:43.280Z,8
2017-05-16T08:23:43.921Z,8
2017-05-16T08:24:44.562Z,8
2017-05-16T08:25:45.204Z,8
2017-05-16T08:26:45.846Z,8
2017-05-16T08:27:46.490Z,12
2017-05-16T08:28:47.127Z,12
2017-05-16T08:29:47.770Z,12
2017-05-16T08:30:48.605Z,8
2017-05-16T08:31:49.246Z,8
2017-05-16T08:32:49.886Z,8
2017-05-16T08:33:50.529Z,8
2017-05-16T08:34:51.163Z,8
2017-05-16T08:35:51.806Z,8
2017-05-16T08:36:52.445Z,8
2017-05-16T08:37:53.079Z,8
2017-05-16T08:38:53.874Z,8
2017-05-16T08:39:54.513Z,8
2017-05-16T08:40:55.154Z,8
2017-05-16T08:41:55.790Z,8
2017-05-16T08:42:56.430Z,8
2017-05-16T08:43:57.075Z,8
2017-05-16T08:44:57.718Z,8
2017-05-16T08:45:58.360Z,8
2017-05-16T08:46:59.002Z,8
2017-05-16T08:47:59.841Z,8
2017-05-16T08:49:00.482Z,8
2017-05-16T08:50:01.125Z,8
2017-05-16T08:51:01.761Z,8
2017-05-16T08:52:02.402Z,8
2017-05-16T08:53:03.043Z,8
2017-05-16T08:54:03.684Z,12
2017-05-16T08:55:04.329Z,12
2017-05-16T08:56:05.119Z,12
2017-05-16T08:57:05.764Z,12
2017-05-16T08:58:06.403Z,12
2017-05-16T08:59:07.046Z,12
2017-05-16T09:00:07.692Z,12
2017-05-16T09:01:08.336Z,12
2017-05-16T09:02:08.975Z,8
2017-05-16T09:03:09.616Z,8
2017-05-16T09:04:10.461Z,12
2017-05-16T09:05:11.106Z,12
2017-05-16T09:06:11.749Z,12
2017-05-16T09:07:12.386Z,12
2017-05-16T09:08:13.028Z,16
2017-05-16T09:09:13.664Z,16
2017-05-16T09:10:14.306Z,16
2017-05-16T09:11:14.952Z,16
2017-05-16T09:12:15.798Z,16
2017-05-16T09:13:16.439Z,16
2017-05-16T09:14:17.083Z,12
2017-05-16T09:15:17.724Z,12
2017-05-16T09:16:18.365Z,12
2017-05-16T09:17:19.010Z,12
2017-05-16T09:18:19.652Z,12
2017-05-16T09:19:20.296Z,16
2017-05-16T09:20:20.942Z,16
2017-05-16T09:21:21.733Z,16
2017-05-16T09:22:22.372Z,16
2017-05-16T09:23:23.015Z,16
2017-05-16T09:24:23.658Z,16
2017-05-16T09:25:24.302Z,16
2017-05-16T09:26:24.941Z,16
2017-05-16T09:27:25.583Z,12
2017-05-16T09:28:26.220Z,16
2017-05-16T09:29:27.059Z,16
2017-05-16T09:30:27.701Z,16
2017-05-16T09:31:28.338Z,16
2017-05-16T09:32:28.982Z,16
2017-05-16T09:33:29.625Z,20
2017-05-16T09:34:30.269Z,20
2017-05-16T09:35:30.919Z,16
2017-05-16T09:36:31.549Z,20
2017-05-16T09:37:32.342Z,24
2017-05-16T09:38:32.986Z,24
2017-05-16T09:39:33.627Z,20
2017-05-16T09:40:34.270Z,20
2017-05-16T09:41:34.911Z,20
2017-05-16T09:42:35.559Z,24
2017-05-16T09:43:36.192Z,24
2017-05-16T09:44:36.835Z,24
2017-05-16T09:45:38.131Z,24
2017-05-16T09:46:38.776Z,24
2017-05-16T09:47:39.414Z,24
2017-05-16T09:48:40.052Z,24
2017-05-16T09:49:40.690Z,24
2017-05-16T09:50:41.330Z,24
2017-05-16T09:51:41.973Z,24
2017-05-16T09:52:42.619Z,24
2017-05-16T09:53:43.408Z,24
2017-05-16T09:54:44.044Z,24
2017-05-16T09:55:44.684Z,24
2017-05-16T09:56:45.325Z,24
2017-05-16T09:57:45.963Z,24
2017-05-16T09:58:46.605Z,24
2017-05-16T09:59:47.242Z,24
2017-05-16T10:00:47.836Z,24
2017-05-16T10:01:48.480Z,24
2017-05-16T10:02:49.423Z,24
2017-05-16T10:03:50.064Z,24
2017-05-16T10:04:50.704Z,28
2017-05-16T10:05:51.345Z,24
2017-05-16T10:06:51.990Z,24
2017-05-16T10:07:52.635Z,24
2017-05-16T10:08:53.278Z,24
2017-05-16T10:09:53.922Z,24
2017-05-16T10:10:54.761Z,24
2017-05-16T10:11:55.398Z,24
2017-05-16T10:12:56.036Z,28
2017-05-16T10:13:56.678Z,28
2017-05-16T10:14:57.320Z,28
2017-05-16T10:15:57.960Z,28
2017-05-16T10:16:58.600Z,32
2017-05-16T10:17:59.245Z,28
2017-05-16T10:19:00.041Z,32
2017-05-16T10:20:00.684Z,32
2017-05-16T10:21:01.330Z,32
2017-05-16T10:22:01.970Z,32
2017-05-16T10:23:02.611Z,32
2017-05-16T10:24:03.256Z,32
2017-05-16T10:25:03.902Z,32
2017-05-16T10:26:04.544Z,28
2017-05-16T10:27:05.383Z,32
2017-05-16T10:28:06.025Z,40
2017-05-16T10:29:06.669Z,28
2017-05-16T10:30:07.310Z,32
2017-05-16T10:31:07.952Z,32
2017-05-16T10:32:08.596Z,32
2017-05-16T10:33:09.233Z,32
2017-05-16T10:34:09.870Z,32
2017-05-16T10:35:10.515Z,32
2017-05-16T10:36:11.158Z,36
2017-05-16T10:37:11.804Z,32
2017-05-16T10:38:12.456Z,32
2017-05-16T10:39:13.091Z,32
2017-05-16T10:40:13.732Z,32
2017-05-16T10:41:14.371Z,32
2017-05-16T10:42:15.015Z,36
2017-05-16T10:43:15.656Z,36
2017-05-16T10:44:16.500Z,36
2017-05-16T10:45:17.144Z,52
2017-05-16T10:46:17.786Z,40
2017-05-16T10:47:18.429Z,36
2017-05-16T10:48:19.069Z,36
2017-05-16T10:49:19.706Z,36
2017-05-16T10:50:20.344Z,36
2017-05-16T10:51:20.985Z,36
2017-05-16T10:52:21.876Z,52
2017-05-16T10:53:22.576Z,40
2017-05-16T10:54:23.218Z,36
2017-05-16T10:55:23.866Z,36
2017-05-16T10:56:24.508Z,44
2017-05-16T10:57:25.147Z,40
2017-05-16T10:58:25.789Z,36
2017-05-16T10:59:26.481Z,36
2017-05-16T11:00:27.425Z,32
2017-05-16T11:01:28.060Z,44
2017-05-16T11:02:28.703Z,44
2017-05-16T11:03:29.347Z,40
2017-05-16T11:04:29.990Z,36
2017-05-16T11:05:30.633Z,44
2017-05-16T11:06:31.271Z,40
2017-05-16T11:07:31.915Z,48
2017-05-16T11:08:32.756Z,48
2017-05-16T11:09:33.396Z,52
2017-05-16T11:10:34.039Z,44
2017-05-16T11:11:34.686Z,44
2017-05-16T11:12:35.645Z,48
2017-05-16T11:13:36.290Z,48
2017-05-16T11:14:36.935Z,44
2017-05-16T11:15:37.579Z,48
2017-05-16T11:16:38.223Z,52
2017-05-16T11:17:39.016Z,52
2017-05-16T11:18:39.660Z,52
2017-05-16T11:19:40.301Z,56
2017-05-16T11:20:40.942Z,52
2017-05-16T11:21:41.585Z,52
2017-05-16T11:22:42.227Z,52
2017-05-16T11:23:42.872Z,56
2017-05-16T11:24:43.515Z,44
2017-05-16T11:25:44.355Z,56
2017-05-16T11:26:44.996Z,44
2017-05-16T11:27:45.632Z,56
2017-05-16T11:28:46.276Z,44
2017-05-16T11:29:46.917Z,52
2017-05-16T11:30:47.565Z,44
2017-05-16T11:31:48.207Z,52
2017-05-16T11:32:48.845Z,52
2017-05-16T11:33:49.732Z,52
2017-05-16T11:34:50.373Z,52
2017-05-16T11:35:51.015Z,52
2017-05-16T11:36:51.662Z,56
2017-05-16T11:37:52.302Z,56
2017-05-16T11:38:52.947Z,56
2017-05-16T11:39:53.587Z,48
2017-05-16T11:40:54.231Z,48
2017-05-16T11:41:55.023Z,56
2017-05-16T11:42:55.662Z,52
2017-05-16T11:43:56.306Z,52
2017-05-16T11:44:56.943Z,52
2017-05-16T11:45:57.582Z,56
2017-05-16T11:46:58.227Z,40
2017-05-16T11:47:58.871Z,44
2017-05-16T11:48:59.514Z,52
2017-05-16T11:50:00.156Z,52
2017-05-16T11:51:01.099Z,52
2017-05-16T11:52:02.061Z,56
2017-05-16T11:53:02.698Z,52
2017-05-16T11:54:03.341Z,48
2017-05-16T11:55:03.983Z,44
2017-05-16T11:56:04.626Z,40
2017-05-16T11:57:05.266Z,44
2017-05-16T11:58:05.903Z,48
2017-05-16T11:59:06.695Z,48
2017-05-16T12:00:07.341Z,52
2017-05-16T12:01:07.980Z,40
2017-05-16T12:02:08.621Z,48
2017-05-16T12:03:09.262Z,48
2017-05-16T12:04:09.902Z,48
2017-05-16T12:05:10.548Z,40
2017-05-16T12:06:11.191Z,40
2017-05-16T12:07:12.235Z,40
2017-05-16T12:08:12.878Z,48
2017-05-16T12:09:13.520Z,48
2017-05-16T12:10:14.169Z,48
2017-05-16T12:11:14.802Z,60
2017-05-16T12:12:15.442Z,52
2017-05-16T12:13:16.084Z,56
2017-05-16T12:14:16.729Z,52
2017-05-16T12:15:17.670Z,56
2017-05-16T12:16:18.315Z,60
2017-05-16T12:17:18.959Z,52
2017-05-16T12:18:19.600Z,52
2017-05-16T12:19:20.243Z,40
2017-05-16T12:20:20.883Z,52
2017-05-16T12:21:21.520Z,52
2017-05-16T12:22:22.163Z,44
2017-05-16T12:23:23.011Z,44
2017-05-16T12:24:23.652Z,36
2017-05-16T12:25:24.295Z,48
2017-05-16T12:26:24.940Z,48
2017-05-16T12:27:25.581Z,52
2017-05-16T12:28:26.225Z,52
2017-05-16T12:29:26.867Z,56
2017-05-16T12:30:27.511Z,52
2017-05-16T12:31:28.153Z,52
2017-05-16T12:32:28.997Z,52
2017-05-16T12:33:29.636Z,52
2017-05-16T12:34:30.280Z,52
2017-05-16T12:35:30.920Z,52
2017-05-16T12:36:31.570Z,52
2017-05-16T12:37:32.205Z,52
2017-05-16T12:38:32.848Z,56
2017-05-16T12:39:33.490Z,56
2017-05-16T12:40:34.286Z,56
2017-05-16T12:41:34.927Z,56
2017-05-16T12:42:35.570Z,56
2017-05-16T12:43:36.214Z,56
2017-05-16T12:44:36.857Z,56
2017-05-16T12:45:37.501Z,56
2017-05-16T12:46:38.148Z,56
2017-05-16T12:47:38.794Z,56
2017-05-16T12:48:39.637Z,60
2017-05-16T12:49:40.277Z,56
2017-05-16T12:50:40.918Z,60
2017-05-16T12:51:41.558Z,56
2017-05-16T12:52:42.204Z,60
2017-05-16T12:53:42.851Z,60
2017-05-16T12:54:43.493Z,64
2017-05-16T12:55:44.129Z,64
2017-05-16T12:56:44.970Z,60
2017-05-16T12:57:45.613Z,60
2017-05-16T12:58:46.255Z,64
2017-05-16T12:59:46.897Z,60
2017-05-16T13:00:47.540Z,60
2017-05-16T13:01:48.178Z,60
2017-05-16T13:02:48.819Z,60
2017-05-16T13:03:49.464Z,64
2017-05-16T13:04:50.109Z,60
2017-05-16T13:05:50.949Z,60
2017-05-16T13:06:51.592Z,64
2017-05-16T13:07:52.232Z,64
2017-05-16T13:08:52.876Z,60
2017-05-16T13:09:53.520Z,64
2017-05-16T13:10:54.161Z,64
2017-05-16T13:11:54.807Z,64
2017-05-16T13:12:55.448Z,64
2017-05-16T13:13:56.292Z,64
2017-05-16T13:14:56.934Z,64
2017-05-16T13:15:57.579Z,64
2017-05-16T13:16:58.220Z,68
2017-05-16T13:17:58.864Z,64
2017-05-16T13:18:59.506Z,64
2017-05-16T13:20:00.151Z,68
2017-05-16T13:21:00.794Z,64
2017-05-16T13:22:01.595Z,64
2017-05-16T13:23:02.235Z,64
2017-05-16T13:24:02.876Z,64
2017-05-16T13:25:03.521Z,64
2017-05-16T13:26:04.166Z,64
2017-05-16T13:27:04.805Z,68
2017-05-16T13:28:05.462Z,68
2017-05-16T13:29:06.090Z,64
2017-05-16T13:30:06.934Z,64
2017-05-16T13:31:07.575Z,64
2017-05-16T13:32:08.219Z,68
2017-05-16T13:33:08.862Z,68
2017-05-16T13:34:09.503Z,68
2017-05-16T13:35:10.146Z,68
2017-05-16T13:36:10.788Z,68
2017-05-16T13:37:11.431Z,68
2017-05-16T13:38:12.075Z,68
2017-05-16T13:39:13.183Z,72
2017-05-16T13:40:13.825Z,72
2017-05-16T13:41:14.464Z,68
2017-05-16T13:42:15.055Z,68
2017-05-16T13:43:15.695Z,68
2017-05-16T13:44:16.336Z,72
2017-05-16T13:45:17.024Z,72
2017-05-16T13:46:17.637Z,72
2017-05-16T13:47:18.475Z,68
2017-05-16T13:48:19.122Z,68
2017-05-16T13:49:19.762Z,72
2017-05-16T13:50:20.407Z,72
2017-05-16T13:51:21.054Z,72
2017-05-16T13:52:21.696Z,72
2017-05-16T13:53:22.338Z,72
2017-05-16T13:54:23.130Z,72
2017-05-16T13:55:23.774Z,72
2017-05-16T13:56:24.420Z,68
2017-05-16T13:57:25.062Z,72
2017-05-16T13:58:25.706Z,72
2017-05-16T13:59:26.348Z,72
2017-05-16T14:00:27.187Z,72
2017-05-16T14:01:27.829Z,72
2017-05-16T14:02:28.469Z,68
2017-05-16T14:03:29.263Z,72
2017-05-16T14:04:29.909Z,76
2017-05-16T14:05:30.555Z,72
2017-05-16T14:06:31.195Z,72
2017-05-16T14:07:31.835Z,68
2017-05-16T14:08:32.474Z,68
2017-05-16T14:09:33.118Z,68
2017-05-16T14:10:33.763Z,68
2017-05-16T14:11:34.611Z,60
2017-05-16T14:12:35.252Z,60
2017-05-16T14:13:35.898Z,56
2017-05-16T14:14:36.539Z,48
2017-05-16T14:15:37.182Z,48
2017-05-16T14:16:37.830Z,48
2017-05-16T14:17:38.468Z,48
2017-05-16T14:18:39.114Z,48
2017-05-16T14:19:39.906Z,44
2017-05-16T14:20:40.551Z,44
2017-05-16T14:21:41.195Z,40
2017-05-16T14:22:41.842Z,40
2017-05-16T14:23:42.482Z,40
2017-05-16T14:24:43.125Z,36
2017-05-16T14:25:43.766Z,36
2017-05-16T14:26:44.409Z,36
2017-05-16T14:27:45.252Z,40
2017-05-16T14:28:45.895Z,40
2017-05-16T14:29:46.536Z,40
2017-05-16T14:30:47.177Z,48
2017-05-16T14:31:47.818Z,44
2017-05-16T14:32:48.463Z,44
2017-05-16T14:33:49.113Z,44
2017-05-16T14:34:49.811Z,44
2017-05-16T14:35:50.453Z,44
2017-05-16T14:36:51.297Z,44
2017-05-16T14:37:51.939Z,44
2017-05-16T14:38:52.581Z,44
2017-05-16T14:39:53.226Z,48
2017-05-16T14:40:53.863Z,48
2017-05-16T14:41:54.503Z,52
2017-05-16T14:42:55.147Z,52
2017-05-16T14:43:55.792Z,52